createdAt,value
2018-03-27T00:02:19.866Z,98446.17
2018-03-27T00:04:48.512Z,98452.53
2018-03-27T00:07:17.165Z,98451.95
2018-03-27T00:09:45.797Z,98454.51
2018-03-27T00:12:14.496Z,98456.49
2018-03-27T00:14:43.326Z,98457.77
2018-03-27T00:17:13.987Z,98465.72
2018-03-27T00:19:43.448Z,98462.69
2018-03-27T00:22:12.054Z,98459.89
2018-03-27T00:24:43.583Z,98464.00
2018-03-27T00:27:11.470Z,98476.13
2018-03-27T00:29:57.973Z,98479.45
2018-03-27T00:32:44.409Z,98469.34
2018-03-27T00:35:31.285Z,98472.09
2018-03-27T00:38:17.703Z,98470.02
2018-03-27T00:40:45.442Z,98471.75
2018-03-27T00:43:14.109Z,98469.24
2018-03-27T00:45:42.770Z,98465.72
2018-03-27T00:48:11.833Z,98467.33
2018-03-27T00:50:41.373Z,98467.06
2018-03-27T00:53:10.633Z,98468.58
2018-03-27T00:55:39.211Z,98468.03
2018-03-27T00:58:07.897Z,98479.31
2018-03-27T01:00:36.502Z,98475.16
2018-03-27T01:03:05.103Z,98482.53
2018-03-27T01:05:33.681Z,98479.05
2018-03-27T01:08:02.404Z,98475.23
2018-03-27T01:10:31.436Z,98474.19
2018-03-27T01:12:59.980Z,98472.72
2018-03-27T01:15:28.503Z,98471.16
2018-03-27T01:17:57.915Z,98469.27
2018-03-27T01:20:28.336Z,98471.92
2018-03-27T01:22:57.254Z,98468.59
2018-03-27T01:25:25.991Z,98483.25
2018-03-27T01:27:55.346Z,98481.96
2018-03-27T01:30:23.984Z,98491.11
2018-03-27T01:32:52.645Z,98480.02
2018-03-27T01:35:21.252Z,98481.73
2018-03-27T01:37:49.932Z,98485.78
2018-03-27T01:40:19.367Z,98486.25
2018-03-27T01:42:47.975Z,98480.28
2018-03-27T01:45:17.311Z,98477.45
2018-03-27T01:47:45.906Z,98479.65
2018-03-27T01:50:15.525Z,98477.44
2018-03-27T01:52:45.492Z,98474.14
2018-03-27T01:55:15.148Z,98477.64
2018-03-27T01:57:43.884Z,98474.75
2018-03-27T02:00:12.509Z,98477.62
2018-03-27T02:02:41.079Z,98477.03
2018-03-27T02:05:09.882Z,98475.09
2018-03-27T02:07:38.422Z,98474.95
2018-03-27T02:10:07.746Z,98473.70
2018-03-27T02:12:41.810Z,98474.23
2018-03-27T02:15:16.256Z,98472.08
2018-03-27T02:17:50.769Z,98475.08
2018-03-27T02:20:24.824Z,98473.83
2018-03-27T02:26:01.517Z,98463.84
2018-03-27T02:28:30.299Z,98469.55
2018-03-27T02:30:59.314Z,98470.02
2018-03-27T02:33:28.121Z,98469.88
2018-03-27T02:35:57.352Z,98470.81
2018-03-27T02:38:28.171Z,98472.50
2018-03-27T02:40:56.813Z,98472.09
2018-03-27T02:43:25.611Z,98471.05
2018-03-27T02:45:54.199Z,98472.62
2018-03-27T02:48:22.863Z,98475.30
2018-03-27T02:50:51.854Z,98479.09
2018-03-27T02:53:20.426Z,98467.23
2018-03-27T02:55:49.015Z,98466.91
2018-03-27T02:58:17.788Z,98459.89
2018-03-27T03:00:46.443Z,98456.62
2018-03-27T03:03:15.135Z,98459.20
2018-03-27T03:05:44.500Z,98451.00
2018-03-27T03:08:14.224Z,98457.17
2018-03-27T03:10:43.827Z,98463.17
2018-03-27T03:13:12.660Z,98459.87
2018-03-27T03:15:41.471Z,98453.87
2018-03-27T03:18:10.107Z,98459.74
2018-03-27T03:20:38.793Z,98461.66
2018-03-27T03:23:07.444Z,98461.59
2018-03-27T03:25:35.984Z,98464.57
2018-03-27T03:28:04.555Z,98466.73
2018-03-27T03:30:34.061Z,98475.98
2018-03-27T03:33:02.628Z,98469.34
2018-03-27T03:35:31.344Z,98468.72
2018-03-27T03:38:00.046Z,98461.64
2018-03-27T03:40:28.846Z,98461.52
2018-03-27T03:42:58.298Z,98460.11
2018-03-27T03:45:27.077Z,98456.52
2018-03-27T03:47:55.623Z,98464.25
2018-03-27T03:50:24.332Z,98449.19
2018-03-27T03:52:52.901Z,98456.03
2018-03-27T03:55:21.531Z,98457.34
2018-03-27T03:57:50.197Z,98463.88
2018-03-27T04:00:18.791Z,98463.08
2018-03-27T04:02:48.172Z,98461.67
2018-03-27T04:05:16.904Z,98457.31
2018-03-27T04:07:46.311Z,98467.44
2018-03-27T04:10:14.966Z,98465.44
2018-03-27T04:12:44.405Z,98468.51
2018-03-27T04:15:13.341Z,98460.45
2018-03-27T04:17:42.040Z,98464.50
2018-03-27T04:20:10.706Z,98471.52
2018-03-27T04:22:39.418Z,98479.21
2018-03-27T04:25:08.018Z,98469.99
2018-03-27T04:27:37.396Z,98477.91
2018-03-27T04:30:06.117Z,98482.36
2018-03-27T04:32:34.855Z,98486.73
2018-03-27T04:35:03.691Z,98488.02
2018-03-27T04:37:32.377Z,98491.30
2018-03-27T04:40:01.132Z,98497.21
2018-03-27T04:42:30.236Z,98504.05
2018-03-27T04:44:59.146Z,98502.27
2018-03-27T04:47:28.920Z,98509.42
2018-03-27T04:49:58.262Z,98502.45
2018-03-27T04:52:27.615Z,98499.72
2018-03-27T04:54:56.336Z,98504.61
2018-03-27T04:57:25.109Z,98503.02
2018-03-27T04:59:54.022Z,98511.17
2018-03-27T05:02:23.550Z,98510.67
2018-03-27T05:04:52.259Z,98513.39
2018-03-27T05:07:21.013Z,98521.45
2018-03-27T05:09:49.738Z,98529.61
2018-03-27T05:12:18.805Z,98531.05
2018-03-27T05:14:48.163Z,98523.71
2018-03-27T05:17:17.410Z,98526.32
2018-03-27T05:19:46.815Z,98528.53
2018-03-27T05:22:15.559Z,98532.87
2018-03-27T05:24:44.243Z,98542.72
2018-03-27T05:27:13.797Z,98539.73
2018-03-27T05:29:42.758Z,98550.00
2018-03-27T05:32:11.426Z,98545.72
2018-03-27T05:34:40.045Z,98550.36
2018-03-27T05:37:08.690Z,98550.08
2018-03-27T05:39:37.338Z,98549.03
2018-03-27T05:42:06.280Z,98550.60
2018-03-27T05:44:35.170Z,98546.92
2018-03-27T05:47:04.401Z,98555.70
2018-03-27T05:49:33.436Z,98554.71
2018-03-27T05:52:02.163Z,98552.07
2018-03-27T05:54:30.759Z,98560.42
2018-03-27T05:56:59.449Z,98560.02
2018-03-27T05:59:28.043Z,98562.51
2018-03-27T06:01:56.853Z,98561.79
2018-03-27T06:04:25.585Z,98557.20
2018-03-27T06:06:54.233Z,98557.33
2018-03-27T06:09:23.629Z,98560.03
2018-03-27T06:11:52.354Z,98562.78
2018-03-27T06:14:22.599Z,98566.67
2018-03-27T06:16:53.509Z,98562.81
2018-03-27T06:19:22.811Z,98557.71
2018-03-27T06:21:51.399Z,98569.58
2018-03-27T06:24:20.822Z,98569.47
2018-03-27T06:26:49.445Z,98576.78
2018-03-27T06:29:18.037Z,98580.83
2018-03-27T06:31:46.663Z,98577.11
2018-03-27T06:34:15.239Z,98579.75
2018-03-27T06:36:43.817Z,98575.31
2018-03-27T06:39:13.079Z,98578.27
2018-03-27T06:41:41.734Z,98580.71
2018-03-27T06:44:10.353Z,98590.17
2018-03-27T06:46:39.898Z,98589.83
2018-03-27T06:49:09.233Z,98592.53
2018-03-27T06:51:38.298Z,98591.55
2018-03-27T06:54:06.949Z,98592.19
2018-03-27T06:56:35.566Z,98601.73
2018-03-27T06:59:04.212Z,98600.20
2018-03-27T07:01:32.856Z,98598.06
2018-03-27T07:04:01.519Z,98605.06
2018-03-27T07:06:30.165Z,98610.77
2018-03-27T07:08:59.651Z,98611.64
2018-03-27T07:11:29.175Z,98616.02
2018-03-27T07:13:58.688Z,98618.67
2018-03-27T07:16:27.384Z,98614.41
2018-03-27T07:18:57.127Z,98616.81
2018-03-27T07:21:26.968Z,98618.05
2018-03-27T07:23:55.574Z,98612.72
2018-03-27T07:26:24.299Z,98614.16
2018-03-27T07:28:53.705Z,98630.19
2018-03-27T07:31:22.379Z,98620.92
2018-03-27T07:33:51.059Z,98620.34
2018-03-27T07:36:20.481Z,98622.91
2018-03-27T07:38:49.207Z,98621.76
2018-03-27T07:41:17.802Z,98626.66
2018-03-27T07:43:46.594Z,98627.02
2018-03-27T07:46:15.479Z,98622.92
2018-03-27T07:48:45.296Z,98630.07
2018-03-27T07:51:14.242Z,98625.70
2018-03-27T07:53:43.064Z,98629.95
2018-03-27T07:56:12.530Z,98625.61
2018-03-27T07:58:41.131Z,98619.53
2018-03-27T08:01:09.832Z,98624.05
2018-03-27T08:03:38.502Z,98620.64
2018-03-27T08:06:07.994Z,98628.81
2018-03-27T08:08:37.115Z,98633.11
2018-03-27T08:11:05.824Z,98624.55
2018-03-27T08:13:34.547Z,98634.38
2018-03-27T08:16:04.060Z,98629.72
2018-03-27T08:18:33.208Z,98643.69
2018-03-27T08:21:03.553Z,98638.64
2018-03-27T08:23:33.198Z,98647.61
2018-03-27T08:26:01.828Z,98645.55
2018-03-27T08:28:30.476Z,98638.34
2018-03-27T08:30:59.214Z,98635.92
2018-03-27T08:33:28.631Z,98636.37
2018-03-27T08:35:57.501Z,98629.36
2018-03-27T08:38:26.118Z,98632.57
2018-03-27T08:40:54.718Z,98623.44
2018-03-27T08:43:23.381Z,98626.08
2018-03-27T08:45:51.974Z,98626.61
2018-03-27T08:48:21.416Z,98630.95
2018-03-27T08:50:50.674Z,98633.09
2018-03-27T08:53:19.870Z,98639.91
2018-03-27T08:55:48.633Z,98635.84
2018-03-27T08:58:18.074Z,98640.79
2018-03-27T09:00:46.853Z,98639.20
2018-03-27T09:03:16.280Z,98626.78
2018-03-27T09:05:44.970Z,98627.85
2018-03-27T09:08:13.679Z,98619.86
2018-03-27T09:10:42.325Z,98618.12
2018-03-27T09:13:10.920Z,98623.42
2018-03-27T09:15:40.396Z,98617.66
2018-03-27T09:18:10.402Z,98610.60
2018-03-27T09:20:39.238Z,98619.59
2018-03-27T09:23:08.202Z,98611.50
2018-03-27T09:25:37.202Z,98610.53
2018-03-27T09:28:05.910Z,98613.62
2018-03-27T09:30:35.360Z,98614.42
2018-03-27T09:33:04.109Z,98619.08
2018-03-27T09:52:27.000Z,98615.27
2018-03-27T09:54:55.646Z,98615.44
2018-03-27T09:57:25.786Z,98612.59
2018-03-27T09:59:54.654Z,98607.98
2018-03-27T10:02:23.221Z,98607.77
2018-03-27T10:04:51.836Z,98606.35
2018-03-27T10:07:20.608Z,98610.08
2018-03-27T10:09:49.605Z,98606.08
2018-03-27T10:12:29.430Z,98615.83
2018-03-27T10:14:58.106Z,98609.31
2018-03-27T10:17:28.033Z,98604.41
2018-03-27T10:19:57.046Z,98603.72
2018-03-27T10:22:26.341Z,98603.60
2018-03-27T10:24:55.924Z,98607.80
2018-03-27T10:27:24.611Z,98604.59
2018-03-27T10:29:53.192Z,98600.86
2018-03-27T10:32:21.730Z,98604.28
2018-03-27T10:34:50.363Z,98601.16
2018-03-27T10:37:18.993Z,98603.83
2018-03-27T10:39:48.465Z,98596.97
2018-03-27T10:42:17.933Z,98604.31
2018-03-27T10:44:46.486Z,98603.41
2018-03-27T10:47:15.144Z,98604.48
2018-03-27T10:49:43.969Z,98606.61
2018-03-27T10:52:14.422Z,98596.39
2018-03-27T10:54:43.969Z,98597.23
2018-03-27T10:57:12.647Z,98599.62
2018-03-27T10:59:42.069Z,98596.05
2018-03-27T11:02:10.930Z,98594.99
2018-03-27T11:04:39.424Z,98596.88
2018-03-27T11:07:08.010Z,98590.50
2018-03-27T11:09:36.868Z,98593.63
2018-03-27T11:12:06.035Z,98591.84
2018-03-27T11:14:34.632Z,98592.91
2018-03-27T11:17:04.097Z,98587.34
2018-03-27T11:19:33.426Z,98591.97
2018-03-27T11:22:02.530Z,98587.78
2018-03-27T11:24:31.449Z,98596.50
2018-03-27T11:27:00.047Z,98592.47
2018-03-27T11:29:28.748Z,98590.70
2018-03-27T11:31:57.348Z,98586.38
2018-03-27T11:34:26.099Z,98585.38
2018-03-27T11:36:55.046Z,98583.02
2018-03-27T11:39:23.783Z,98583.03
2018-03-27T11:41:52.483Z,98581.23
2018-03-27T11:44:21.124Z,98571.95
2018-03-27T11:46:49.836Z,98568.48
2018-03-27T11:49:18.548Z,98564.85
2018-03-27T11:51:47.141Z,98558.14
2018-03-27T11:54:17.793Z,98559.25
2018-03-27T11:56:46.936Z,98558.71
2018-03-27T11:59:15.658Z,98551.41
2018-03-27T12:24:12.643Z,98528.63
2018-03-27T12:29:57.755Z,98524.23
2018-03-27T12:36:02.189Z,98514.11
2018-03-27T12:38:31.304Z,98507.89
2018-03-27T12:40:59.979Z,98502.98
2018-03-27T12:43:28.600Z,98501.89
2018-03-27T12:45:57.328Z,98501.55
2018-03-27T12:48:26.232Z,98507.45
2018-03-27T12:50:55.447Z,98496.97
2018-03-27T12:53:25.074Z,98493.92
2018-03-27T12:55:53.769Z,98494.63
2018-03-27T12:58:22.558Z,98478.25
2018-03-27T13:00:51.148Z,98476.09
2018-03-27T13:03:20.634Z,98481.41
2018-03-27T13:05:49.381Z,98474.71
2018-03-27T13:08:19.284Z,98474.59
2018-03-27T13:10:48.449Z,98465.84
2018-03-27T13:13:19.340Z,98473.59
2018-03-27T13:15:48.367Z,98468.17
2018-03-27T13:18:18.042Z,98465.91
2018-03-27T13:20:47.646Z,98462.09
2018-03-27T13:23:16.245Z,98457.75
2018-03-27T13:25:44.757Z,98451.25
2018-03-27T13:28:13.337Z,98448.42
2018-03-27T13:30:42.774Z,98446.52
2018-03-27T13:33:11.675Z,98443.63
2018-03-27T13:35:40.543Z,98434.25
2018-03-27T13:38:09.453Z,98438.44
2018-03-27T13:40:38.079Z,98431.73
2018-03-27T13:43:06.859Z,98432.88
2018-03-27T13:45:35.492Z,98431.42
2018-03-27T13:48:04.274Z,98434.37
2018-03-27T13:50:34.000Z,98428.88
2018-03-27T13:53:03.611Z,98420.55
2018-03-27T13:55:32.333Z,98423.08
2018-03-27T13:58:01.867Z,98420.48
2018-03-27T14:00:31.759Z,98415.45
2018-03-27T14:03:01.106Z,98416.00
2018-03-27T14:05:31.168Z,98419.58
2018-03-27T14:07:59.914Z,98412.05
2018-03-27T14:10:29.591Z,98415.01
2018-03-27T14:12:58.232Z,98409.89
2018-03-27T14:15:28.087Z,98404.64
2018-03-27T14:17:57.515Z,98408.56
2018-03-27T14:20:27.122Z,98398.55
2018-03-27T14:22:55.966Z,98399.88
2018-03-27T14:25:24.992Z,98405.53
2018-03-27T14:27:54.032Z,98402.70
2018-03-27T14:30:22.992Z,98396.45
2018-03-27T14:32:52.450Z,98399.55
2018-03-27T14:35:21.381Z,98390.83
2018-03-27T14:37:50.173Z,98389.41
2018-03-27T14:40:19.786Z,98389.44
2018-03-27T14:42:48.482Z,98392.28
2018-03-27T14:45:17.612Z,98386.44
2018-03-27T14:47:47.019Z,98387.14
2018-03-27T14:50:17.141Z,98380.91
2018-03-27T14:52:46.015Z,98389.89
2018-03-27T14:55:16.079Z,98388.47
2018-03-27T14:57:44.988Z,98386.05
2018-03-27T15:00:14.167Z,98383.19
2018-03-27T15:02:43.711Z,98382.49
2018-03-27T15:05:13.143Z,98382.75
2018-03-27T15:07:42.911Z,98383.12
2018-03-27T15:10:12.183Z,98380.73
2018-03-27T15:12:42.450Z,98374.86
2018-03-27T15:15:11.934Z,98372.58
2018-03-27T15:17:40.992Z,98365.47
2018-03-27T15:20:10.314Z,98371.95
2018-03-27T15:22:39.040Z,98369.11
2018-03-27T15:25:08.748Z,98361.45
2018-03-27T15:27:37.402Z,98363.20
2018-03-27T15:30:06.230Z,98361.72
2018-03-27T15:32:36.499Z,98357.45
2018-03-27T15:35:06.123Z,98353.16
2018-03-27T15:37:34.887Z,98361.45
2018-03-27T15:40:03.894Z,98353.09
2018-03-27T15:42:32.498Z,98358.70
2018-03-27T15:45:01.500Z,98354.39
2018-03-27T15:47:31.716Z,98356.15
2018-03-27T15:50:00.824Z,98359.61
2018-03-27T15:52:35.693Z,98362.32
2018-03-27T15:55:05.478Z,98359.61
2018-03-27T15:57:35.044Z,98365.76
2018-03-27T16:00:04.194Z,98362.46
2018-03-27T16:02:33.855Z,98359.34
2018-03-27T16:05:03.353Z,98361.13
2018-03-27T16:07:32.307Z,98356.73
2018-03-27T16:10:02.020Z,98360.56
2018-03-27T16:12:32.078Z,98358.97
2018-03-27T16:15:01.066Z,98365.00
2018-03-27T16:17:30.819Z,98358.13
2018-03-27T16:20:00.432Z,98362.95
2018-03-27T16:22:29.590Z,98363.84
2018-03-27T16:24:58.357Z,98362.92
2018-03-27T16:27:27.901Z,98365.41
2018-03-27T16:29:57.938Z,98371.08
2018-03-27T16:32:27.633Z,98368.53
2018-03-27T16:34:56.495Z,98367.37
2018-03-27T16:37:25.974Z,98373.45
2018-03-27T16:39:55.929Z,98370.45
2018-03-27T16:42:25.644Z,98363.95
2018-03-27T16:44:54.551Z,98370.55
2018-03-27T16:47:23.454Z,98380.73
2018-03-27T16:49:52.458Z,98377.48
2018-03-27T16:52:21.657Z,98391.38
2018-03-27T16:54:50.752Z,98396.06
2018-03-27T16:57:19.834Z,98396.38
2018-03-27T16:59:49.208Z,98402.92
2018-03-27T17:02:18.213Z,98400.95
2018-03-27T17:04:48.050Z,98395.35
2018-03-27T17:07:18.262Z,98405.10
2018-03-27T17:09:48.306Z,98397.86
2018-03-27T17:12:17.337Z,98391.17
2018-03-27T17:14:46.734Z,98398.50
2018-03-27T17:17:16.555Z,98406.98
2018-03-27T17:19:47.115Z,98404.88
2018-03-27T17:22:16.937Z,98407.05
2018-03-27T17:24:45.926Z,98406.69
2018-03-27T17:27:16.503Z,98409.95
2018-03-27T17:29:46.778Z,98406.94
2018-03-27T17:32:16.785Z,98398.73
2018-03-27T17:34:46.738Z,98403.25
2018-03-27T17:37:15.926Z,98404.84
2018-03-27T17:39:44.862Z,98418.00
2018-03-27T17:42:13.864Z,98424.54
2018-03-27T17:44:42.744Z,98420.45
2018-03-27T17:47:11.661Z,98429.02
2018-03-27T17:49:40.685Z,98435.33
2018-03-27T17:52:09.797Z,98443.27
2018-03-27T17:54:38.928Z,98448.23
2018-03-27T17:57:08.054Z,98447.00
2018-03-27T17:59:37.569Z,98451.58
2018-03-27T18:02:08.330Z,98449.48
2018-03-27T18:04:39.193Z,98452.43
2018-03-27T18:07:10.553Z,98449.95
2018-03-27T18:09:41.096Z,98452.07
2018-03-27T18:12:10.980Z,98451.76
2018-03-27T18:14:40.470Z,98451.31
2018-03-27T18:17:10.102Z,98457.94
2018-03-27T18:19:39.892Z,98463.98
2018-03-27T18:22:09.176Z,98471.36
2018-03-27T18:24:40.938Z,98472.46
2018-03-27T18:27:10.984Z,98479.63
2018-03-27T18:29:40.081Z,98486.84
2018-03-27T18:32:11.452Z,98500.70
2018-03-27T18:34:42.276Z,98496.44
2018-03-27T18:37:12.558Z,98504.81
2018-03-27T18:39:42.319Z,98508.19
2018-03-27T18:42:12.207Z,98513.84
2018-03-27T18:44:43.260Z,98514.08
2018-03-27T18:47:14.996Z,98511.66
2018-03-27T18:49:44.517Z,98517.73
2018-03-27T18:52:14.117Z,98514.81
2018-03-27T18:54:43.821Z,98515.34
2018-03-27T18:57:15.360Z,98524.08
2018-03-27T19:00:09.660Z,98531.92
2018-03-27T19:02:39.842Z,98532.89
2018-03-27T19:05:09.840Z,98537.76
2018-03-27T19:07:41.149Z,98543.19
2018-03-27T19:10:11.111Z,98540.56
2018-03-27T19:12:41.781Z,98545.36
2018-03-27T19:15:11.864Z,98553.73
2018-03-27T19:17:41.924Z,98550.06
2018-03-27T19:20:13.394Z,98551.14
2018-03-27T19:22:56.524Z,98556.48
2018-03-27T19:25:27.098Z,98559.98
2018-03-27T19:27:56.890Z,98560.77
2018-03-27T19:30:30.623Z,98559.66
2018-03-27T19:33:00.046Z,98569.98
2018-03-27T19:35:29.460Z,98568.96
2018-03-27T19:37:59.495Z,98567.84
2018-03-27T19:40:30.753Z,98566.53
2018-03-27T19:43:00.508Z,98569.09
2018-03-27T19:45:33.508Z,98565.36
2018-03-27T19:48:06.897Z,98571.95
2018-03-27T19:50:37.103Z,98567.84
2018-03-27T19:53:07.221Z,98565.44
2018-03-27T19:55:37.281Z,98567.77
2018-03-27T19:58:07.281Z,98571.58
2018-03-27T20:00:36.646Z,98568.33
2018-03-27T20:03:06.671Z,98568.19
2018-03-27T20:05:37.654Z,98563.26
2018-03-27T20:08:08.676Z,98564.16
2018-03-27T20:10:39.678Z,98566.88
2018-03-27T20:13:09.873Z,98566.88
2018-03-27T20:15:42.076Z,98562.88
2018-03-27T20:18:11.095Z,98566.52
2018-03-27T20:20:41.764Z,98564.49
2018-03-27T20:23:11.572Z,98570.19
2018-03-27T20:25:40.674Z,98562.00
2018-03-27T20:28:12.657Z,98557.16
2018-03-27T20:30:43.068Z,98557.70
2018-03-27T20:33:14.872Z,98555.31
2018-03-27T20:35:44.199Z,98558.39
2018-03-27T20:38:13.637Z,98562.90
2018-03-27T20:40:43.994Z,98560.16
2018-03-27T20:43:14.791Z,98558.44
2018-03-27T20:45:44.197Z,98557.46
2018-03-27T20:48:13.823Z,98563.27
2018-03-27T20:50:43.533Z,98556.29
2018-03-27T20:53:14.311Z,98566.39
2018-03-27T20:55:44.488Z,98569.12
2018-03-27T20:58:13.820Z,98574.50
2018-03-27T21:00:42.914Z,98568.72
2018-03-27T21:03:11.978Z,98574.02
2018-03-27T21:05:41.426Z,98568.25
2018-03-27T21:08:11.434Z,98566.70
2018-03-27T21:10:42.540Z,98567.11
2018-03-27T21:13:12.703Z,98565.00
2018-03-27T21:15:42.863Z,98565.83
2018-03-27T21:18:13.636Z,98567.64
2018-03-27T21:20:43.023Z,98566.08
2018-03-27T21:23:12.472Z,98571.28
2018-03-27T21:25:42.802Z,98569.69
2018-03-27T21:28:12.115Z,98566.98
2018-03-27T21:30:41.657Z,98565.95
2018-03-27T21:33:11.190Z,98566.56
2018-03-27T21:35:39.913Z,98568.26
2018-03-27T21:38:09.776Z,98565.26
2018-03-27T21:40:38.574Z,98570.23
2018-03-27T21:43:08.532Z,98565.03
2018-03-27T21:45:37.926Z,98569.45
2018-03-27T21:48:07.245Z,98570.46
2018-03-27T21:50:36.083Z,98576.91
2018-03-27T21:53:05.420Z,98574.99
2018-03-27T21:55:34.508Z,98569.39
2018-03-27T21:58:03.514Z,98569.81
2018-03-27T22:00:32.453Z,98570.05
2018-03-27T22:03:01.149Z,98571.45
2018-03-27T22:05:30.249Z,98566.59
2018-03-27T22:07:59.694Z,98562.22
2018-03-27T22:10:28.480Z,98572.03
2018-03-27T22:12:57.729Z,98566.40
2018-03-27T22:15:27.367Z,98562.72
2018-03-27T22:17:57.073Z,98563.21
2018-03-27T22:20:26.596Z,98566.01
2018-03-27T22:22:56.053Z,98564.03
2018-03-27T22:25:25.141Z,98562.67
2018-03-27T22:27:54.062Z,98569.16
2018-03-27T22:30:22.748Z,98573.23
2018-03-27T22:32:51.763Z,98565.64
2018-03-27T22:35:20.379Z,98570.85
2018-03-27T22:37:49.192Z,98571.72
2018-03-27T22:40:18.174Z,98574.12
2018-03-27T22:42:47.133Z,98571.16
2018-03-27T22:45:17.270Z,98557.78
2018-03-27T22:47:47.103Z,98560.16
2018-03-27T22:50:15.716Z,98556.48
2018-03-27T22:52:44.723Z,98562.73
2018-03-27T22:55:13.438Z,98565.97
2018-03-27T22:57:42.295Z,98566.81
2018-03-27T23:00:12.046Z,98566.30
2018-03-27T23:02:41.214Z,98563.70
2018-03-27T23:05:10.016Z,98572.98
2018-03-27T23:07:38.831Z,98568.97
2018-03-27T23:10:07.371Z,98569.90
2018-03-27T23:12:36.320Z,98575.41
2018-03-27T23:15:05.874Z,98566.58
2018-03-27T23:17:35.938Z,98568.06
2018-03-27T23:20:05.735Z,98569.44
2018-03-27T23:22:34.548Z,98568.46
2018-03-27T23:25:03.160Z,98569.67
2018-03-27T23:27:32.668Z,98579.98
2018-03-27T23:30:02.607Z,98574.57
2018-03-27T23:32:32.119Z,98571.69
2018-03-27T23:35:01.891Z,98567.47
2018-03-27T23:37:30.628Z,98569.76
2018-03-27T23:40:00.512Z,98568.14
2018-03-27T23:42:29.810Z,98572.25
2018-03-27T23:44:59.212Z,98571.91
2018-03-27T23:47:28.822Z,98577.21
2018-03-27T23:49:59.207Z,98570.64
2018-03-27T23:52:28.447Z,98563.70
2018-03-27T23:54:57.145Z,98573.83
2018-03-27T23:57:25.815Z,98568.40
2018-03-27T23:59:56.119Z,98564.52
